createdAt,value
2022-11-28T00:00:54.734Z,3.80
2022-11-28T00:05:10.952Z,3.80
2022-11-28T00:09:24.794Z,3.80
2022-11-28T00:13:39.095Z,3.80
2022-11-28T00:17:55.787Z,3.80
2022-11-28T00:22:09.852Z,3.70
2022-11-28T00:26:27.022Z,3.70
2022-11-28T00:30:41.438Z,3.70
2022-11-28T00:34:56.569Z,3.60
2022-11-28T00:39:10.370Z,3.50
2022-11-28T00:43:24.389Z,3.40
2022-11-28T00:47:38.423Z,3.40
2022-11-28T00:51:53.883Z,3.30
2022-11-28T00:56:08.934Z,3.20
2022-11-28T01:00:23.487Z,3.10
2022-11-28T01:04:37.486Z,3.10
2022-11-28T01:08:52.910Z,3.00
2022-11-28T01:13:06.918Z,2.90
2022-11-28T01:17:20.670Z,2.90
2022-11-28T01:21:36.920Z,2.90
2022-11-28T01:25:52.231Z,2.90
2022-11-28T01:30:07.643Z,2.90
2022-11-28T01:34:21.656Z,2.80
2022-11-28T01:38:36.029Z,2.80
2022-11-28T01:42:51.396Z,2.80
2022-11-28T01:47:05.239Z,2.80
2022-11-28T01:51:19.556Z,2.80
2022-11-28T01:55:38.992Z,2.80
2022-11-28T01:59:58.530Z,2.80
2022-11-28T02:04:13.772Z,2.80
2022-11-28T02:08:28.014Z,2.80
2022-11-28T02:12:58.459Z,2.80
2022-11-28T02:17:22.401Z,2.90
2022-11-28T02:21:52.723Z,2.90
2022-11-28T02:26:22.271Z,2.90
2022-11-28T02:30:46.601Z,2.80
2022-11-28T02:35:11.049Z,2.80
2022-11-28T02:39:31.967Z,2.80
2022-11-28T02:43:53.660Z,2.80
2022-11-28T02:48:12.089Z,2.80
2022-11-28T02:52:32.639Z,2.70
2022-11-28T02:56:49.751Z,2.70
2022-11-28T03:01:03.617Z,2.70
2022-11-28T03:05:24.831Z,2.70
2022-11-28T03:10:10.161Z,2.70
2022-11-28T03:14:34.536Z,2.70
2022-11-28T03:19:02.277Z,2.70
2022-11-28T03:23:19.133Z,2.80
2022-11-28T03:27:38.168Z,2.80
2022-11-28T03:31:57.305Z,2.90
2022-11-28T03:36:15.903Z,2.90
2022-11-28T03:40:35.237Z,2.90
2022-11-28T03:44:55.450Z,3.00
2022-11-28T03:49:12.712Z,3.00
2022-11-28T03:53:32.305Z,3.00
2022-11-28T03:57:51.760Z,3.00
2022-11-28T04:02:15.535Z,3.00
2022-11-28T04:06:37.032Z,3.10
2022-11-28T04:10:55.816Z,3.10
2022-11-28T04:15:16.172Z,3.10
2022-11-28T04:19:37.145Z,3.10
2022-11-28T04:23:53.876Z,3.10
2022-11-28T04:28:11.772Z,3.00
2022-11-28T04:32:27.629Z,3.00
2022-11-28T04:36:45.451Z,3.10
2022-11-28T04:41:06.115Z,3.10
2022-11-28T04:45:27.924Z,3.10
2022-11-28T04:49:42.009Z,3.10
2022-11-28T04:54:02.718Z,3.20
2022-11-28T04:58:20.929Z,3.20
2022-11-28T05:02:36.620Z,3.30
2022-11-28T05:06:50.992Z,3.40
2022-11-28T05:11:06.483Z,3.40
2022-11-28T05:15:21.092Z,3.40
2022-11-28T05:19:35.280Z,3.40
2022-11-28T05:23:49.966Z,3.40
2022-11-28T05:28:05.660Z,3.40
2022-11-28T05:32:20.268Z,3.40
2022-11-28T05:36:34.461Z,3.40
2022-11-28T05:40:48.380Z,3.40
2022-11-28T05:45:04.929Z,3.40
2022-11-28T05:49:21.233Z,3.40
2022-11-28T05:53:35.212Z,3.50
2022-11-28T05:57:49.239Z,3.50
2022-11-28T06:02:04.983Z,3.50
2022-11-28T06:06:20.413Z,3.60
2022-11-28T06:10:34.568Z,3.70
2022-11-28T06:14:48.380Z,3.70
2022-11-28T06:19:05.545Z,3.70
2022-11-28T06:23:19.817Z,3.80
2022-11-28T06:27:35.202Z,3.80
2022-11-28T06:31:49.458Z,3.80
2022-11-28T06:36:07.350Z,3.80
2022-11-28T06:40:21.225Z,3.80
2022-11-28T06:44:35.260Z,3.80
2022-11-28T06:48:50.880Z,3.80
2022-11-28T06:53:06.453Z,3.80
2022-11-28T06:57:20.270Z,3.90
2022-11-28T07:01:35.189Z,3.90
2022-11-28T07:05:48.932Z,3.90
2022-11-28T07:10:05.657Z,3.90
2022-11-28T07:14:19.685Z,4.00
2022-11-28T07:18:34.805Z,4.00
2022-11-28T07:22:49.565Z,4.00
2022-11-28T07:27:04.778Z,4.00
2022-11-28T07:31:20.734Z,4.00
2022-11-28T07:35:34.976Z,4.00
2022-11-28T07:39:48.904Z,4.10
2022-11-28T07:44:05.405Z,4.10
2022-11-28T07:48:22.040Z,4.20
2022-11-28T07:52:35.780Z,4.20
2022-11-28T07:57:12.989Z,4.30
2022-11-28T08:01:27.052Z,4.30
2022-11-28T08:05:42.292Z,4.30
2022-11-28T08:09:56.657Z,4.30
2022-11-28T08:14:11.030Z,4.20
2022-11-28T08:18:26.509Z,4.20
2022-11-28T08:22:40.655Z,4.20
2022-11-28T08:26:54.532Z,4.10
2022-11-28T08:31:12.072Z,4.10
2022-11-28T08:35:27.178Z,4.00
2022-11-28T08:39:41.587Z,4.00
2022-11-28T08:43:55.804Z,4.00
2022-11-28T08:48:10.580Z,4.00
2022-11-28T08:52:26.600Z,4.00
2022-11-28T08:56:40.668Z,4.00
2022-11-28T09:00:54.483Z,4.10
2022-11-28T09:05:09.253Z,4.10
2022-11-28T09:09:25.071Z,4.10
2022-11-28T09:13:40.471Z,4.20
2022-11-28T09:17:54.428Z,4.30
2022-11-28T09:22:09.756Z,4.40
2022-11-28T09:26:25.879Z,4.50
2022-11-28T09:30:39.748Z,4.60
2022-11-28T09:34:53.807Z,4.70
2022-11-28T09:39:07.684Z,4.70
2022-11-28T09:43:31.111Z,4.80
2022-11-28T09:47:49.068Z,4.90
2022-11-28T09:52:08.222Z,5.00
2022-11-28T09:56:23.559Z,5.10
2022-11-28T10:01:06.907Z,5.20
2022-11-28T10:05:46.129Z,5.30
2022-11-28T10:10:28.231Z,5.40
2022-11-28T10:15:21.155Z,5.50
2022-11-28T10:20:00.693Z,5.60
2022-11-28T10:24:38.586Z,5.70
2022-11-28T10:29:22.495Z,5.80
2022-11-28T10:34:00.524Z,5.80
2022-11-28T10:38:37.617Z,5.90
2022-11-28T10:43:26.088Z,6.00
2022-11-28T10:48:40.087Z,6.00
2022-11-28T10:53:21.766Z,6.00
2022-11-28T10:58:07.058Z,6.10
2022-11-28T11:02:46.070Z,6.10
2022-11-28T11:07:29.798Z,6.20
2022-11-28T11:12:06.213Z,6.20
2022-11-28T11:16:53.660Z,6.20
2022-11-28T11:21:28.613Z,6.20
2022-11-28T11:26:03.610Z,6.10
2022-11-28T11:30:40.356Z,6.10
2022-11-28T11:35:22.444Z,6.20
2022-11-28T11:39:56.681Z,6.30
2022-11-28T11:44:35.477Z,6.30
2022-11-28T11:49:30.199Z,6.30
2022-11-28T11:54:16.147Z,6.30
2022-11-28T11:58:55.151Z,6.30
2022-11-28T12:03:34.219Z,6.30
2022-11-28T12:08:13.261Z,6.40
2022-11-28T12:12:48.683Z,6.40
2022-11-28T12:17:48.784Z,6.40
2022-11-28T12:22:31.174Z,6.40
2022-11-28T12:27:12.106Z,6.40
2022-11-28T12:31:57.108Z,6.50
2022-11-28T12:36:37.578Z,6.50
2022-11-28T12:41:32.625Z,6.50
2022-11-28T12:46:15.150Z,6.50
2022-11-28T12:50:56.856Z,6.50
2022-11-28T12:55:38.184Z,6.60
2022-11-28T13:00:18.372Z,6.60
2022-11-28T13:05:19.016Z,6.60
2022-11-28T13:10:03.508Z,6.60
2022-11-28T13:14:48.249Z,6.60
2022-11-28T13:19:38.255Z,6.60
2022-11-28T13:24:19.776Z,6.60
2022-11-28T13:29:03.279Z,6.60
2022-11-28T13:33:51.173Z,6.60
2022-11-28T13:38:36.197Z,6.60
2022-11-28T13:43:18.560Z,6.50
2022-11-28T13:47:55.684Z,6.60
2022-11-28T13:52:34.195Z,6.50
2022-11-28T13:57:19.007Z,6.50
2022-11-28T14:01:58.816Z,6.50
2022-11-28T14:06:44.541Z,6.50
2022-11-28T14:11:46.437Z,6.50
2022-11-28T14:16:32.659Z,6.50
2022-11-28T14:21:12.649Z,6.50
2022-11-28T14:25:51.233Z,6.40
2022-11-28T14:30:34.419Z,6.40
2022-11-28T14:35:20.714Z,6.40
2022-11-28T14:39:57.531Z,6.40
2022-11-28T14:44:51.405Z,6.40
2022-11-28T14:49:25.642Z,6.30
2022-11-28T14:54:00.501Z,6.30
2022-11-28T14:58:35.441Z,6.30
2022-11-28T15:03:27.058Z,6.30
2022-11-28T15:08:34.827Z,6.20
2022-11-28T15:13:36.667Z,6.20
2022-11-28T15:18:13.668Z,6.20
2022-11-28T15:22:49.336Z,6.20
2022-11-28T15:27:25.805Z,6.10
2022-11-28T15:32:01.235Z,6.10
2022-11-28T15:36:38.281Z,6.10
2022-11-28T15:41:12.608Z,6.10
2022-11-28T15:45:51.171Z,6.10
2022-11-28T15:50:27.345Z,6.10
2022-11-28T15:55:03.167Z,6.10
2022-11-28T15:59:37.739Z,6.10
2022-11-28T16:04:16.584Z,6.10
2022-11-28T16:08:54.569Z,6.00
2022-11-28T16:13:32.510Z,6.10
2022-11-28T16:18:07.704Z,6.10
2022-11-28T16:22:41.977Z,6.00
2022-11-28T16:27:30.237Z,6.00
2022-11-28T16:32:10.510Z,6.00
2022-11-28T16:36:51.778Z,5.90
2022-11-28T16:41:27.240Z,5.90
2022-11-28T16:46:02.508Z,5.90
2022-11-28T16:50:39.013Z,5.90
2022-11-28T16:55:46.296Z,5.80
2022-11-28T17:00:20.701Z,5.80
2022-11-28T17:04:55.356Z,5.80
2022-11-28T17:09:31.450Z,5.80
2022-11-28T17:14:11.710Z,5.80
2022-11-28T17:18:47.870Z,5.80
2022-11-28T17:23:25.584Z,5.80
2022-11-28T17:28:01.024Z,5.80
2022-11-28T17:32:35.142Z,5.70
2022-11-28T17:37:14.627Z,5.80
2022-11-28T17:41:49.526Z,5.80
2022-11-28T17:46:24.971Z,5.70
2022-11-28T17:50:59.452Z,5.70
2022-11-28T17:55:34.254Z,5.70
2022-11-28T18:00:12.547Z,5.70
2022-11-28T18:04:52.207Z,5.60
2022-11-28T18:09:26.694Z,5.60
2022-11-28T18:14:00.866Z,5.60
2022-11-28T18:18:35.552Z,5.50
2022-11-28T18:23:14.782Z,5.50
2022-11-28T18:27:48.757Z,5.50
2022-11-28T18:32:23.012Z,5.50
2022-11-28T18:37:00.769Z,5.40
2022-11-28T18:41:40.421Z,5.40
2022-11-28T18:46:17.607Z,5.40
2022-11-28T18:50:52.023Z,5.40
2022-11-28T18:55:26.516Z,5.30
2022-11-28T19:00:03.647Z,5.30
2022-11-28T19:04:38.780Z,5.30
2022-11-28T19:09:15.093Z,5.30
2022-11-28T19:13:29.205Z,5.20
2022-11-28T19:17:44.593Z,5.20
2022-11-28T19:22:00.418Z,5.20
2022-11-28T19:26:18.026Z,5.20
2022-11-28T19:30:32.127Z,5.20
2022-11-28T19:34:52.458Z,5.10
2022-11-28T19:39:06.350Z,5.10
2022-11-28T19:43:21.765Z,5.10
2022-11-28T19:47:36.217Z,5.10
2022-11-28T19:51:52.454Z,5.10
2022-11-28T19:56:09.075Z,5.10
2022-11-28T20:00:24.096Z,5.10
2022-11-28T20:04:38.516Z,5.00
2022-11-28T20:08:55.370Z,5.00
2022-11-28T20:13:09.797Z,5.00
2022-11-28T20:17:24.119Z,5.00
2022-11-28T20:21:37.938Z,5.00
2022-11-28T20:25:53.149Z,5.00
2022-11-28T20:30:08.934Z,5.00
2022-11-28T20:34:23.400Z,5.00
2022-11-28T20:38:47.301Z,5.00
2022-11-28T20:43:02.656Z,5.00
2022-11-28T20:47:16.519Z,5.00
2022-11-28T20:51:35.392Z,5.00
2022-11-28T20:55:49.170Z,5.00
2022-11-28T21:00:04.947Z,5.00
2022-11-28T21:04:19.842Z,5.00
2022-11-28T21:08:33.868Z,5.00
2022-11-28T21:12:48.038Z,5.00
2022-11-28T21:17:03.207Z,5.00
2022-11-28T21:21:18.890Z,5.00
2022-11-28T21:25:32.643Z,5.00
2022-11-28T21:29:46.578Z,5.10
2022-11-28T21:34:06.308Z,5.10
2022-11-28T21:38:20.074Z,5.10
2022-11-28T21:42:35.752Z,5.10
2022-11-28T21:46:51.252Z,5.10
2022-11-28T21:51:07.409Z,5.10
2022-11-28T21:55:21.233Z,5.10
2022-11-28T21:59:34.965Z,5.10
2022-11-28T22:03:49.877Z,5.10
2022-11-28T22:08:06.209Z,5.10
2022-11-28T22:12:20.430Z,5.10
2022-11-28T22:16:34.477Z,5.20
2022-11-28T22:20:52.854Z,5.20
2022-11-28T22:25:09.568Z,5.20
2022-11-28T22:29:23.871Z,5.20
2022-11-28T22:33:38.925Z,5.30
2022-11-28T22:37:56.689Z,5.30
2022-11-28T22:42:11.980Z,5.30
2022-11-28T22:46:26.260Z,5.30
2022-11-28T22:50:41.600Z,5.30
2022-11-28T22:54:55.768Z,5.40
2022-11-28T22:59:16.280Z,5.30
2022-11-28T23:03:30.934Z,5.30
2022-11-28T23:07:44.840Z,5.30
2022-11-28T23:12:01.258Z,5.30
2022-11-28T23:16:19.175Z,5.30
2022-11-28T23:20:33.403Z,5.30
2022-11-28T23:24:47.739Z,5.30
2022-11-28T23:29:03.626Z,5.30
2022-11-28T23:33:18.975Z,5.20
2022-11-28T23:37:33.262Z,5.20
2022-11-28T23:41:48.066Z,5.20
2022-11-28T23:46:01.981Z,5.20
2022-11-28T23:50:18.456Z,5.20
2022-11-28T23:54:32.586Z,5.10
2022-11-28T23:58:47.480Z,5.10
